createdAt,value
2023-05-05T00:01:35.776Z,97806.00
2023-05-05T00:04:03.029Z,97816.00
2023-05-05T00:06:31.368Z,97804.00
2023-05-05T00:08:58.494Z,97804.00
2023-05-05T00:11:26.118Z,97802.00
2023-05-05T00:13:53.152Z,97814.00
2023-05-05T00:16:20.389Z,97810.00
2023-05-05T00:18:48.103Z,97815.00
2023-05-05T00:21:15.780Z,97807.00
2023-05-05T00:23:42.862Z,97808.00
2023-05-05T00:26:09.923Z,97803.00
2023-05-05T00:28:36.976Z,97802.00
2023-05-05T00:31:04.237Z,97800.00
2023-05-05T00:33:31.539Z,97795.00
2023-05-05T00:35:58.651Z,97791.00
2023-05-05T00:38:25.733Z,97801.00
2023-05-05T00:40:52.712Z,97806.00
2023-05-05T00:43:19.784Z,97802.00
2023-05-05T00:45:48.108Z,97801.00
2023-05-05T00:48:17.067Z,97798.00
2023-05-05T00:50:45.205Z,97799.00
2023-05-05T00:53:13.345Z,97798.00
2023-05-05T00:55:40.758Z,97804.00
2023-05-05T00:58:08.342Z,97792.00
2023-05-05T01:00:35.403Z,97797.00
2023-05-05T01:03:03.348Z,97794.00
2023-05-05T01:06:22.166Z,97801.00
2023-05-05T01:09:22.742Z,97794.00
2023-05-05T01:12:20.624Z,97790.00
2023-05-05T01:15:05.206Z,97792.00
2023-05-05T01:17:41.719Z,97789.00
2023-05-05T01:20:32.177Z,97786.00
2023-05-05T01:23:05.093Z,97792.00
2023-05-05T01:26:05.628Z,97787.00
2023-05-05T01:29:29.335Z,97792.00
2023-05-05T01:32:13.263Z,97795.00
2023-05-05T01:34:58.397Z,97791.00
2023-05-05T01:37:50.939Z,97798.00
2023-05-05T01:40:26.423Z,97801.00
2023-05-05T01:42:55.173Z,97804.00
2023-05-05T01:45:29.453Z,97797.00
2023-05-05T01:47:59.185Z,97793.00
2023-05-05T01:50:28.864Z,97806.00
2023-05-05T01:52:57.978Z,97796.00
2023-05-05T01:55:28.295Z,97794.00
2023-05-05T01:57:58.779Z,97795.00
2023-05-05T02:00:27.488Z,97798.00
2023-05-05T02:02:59.903Z,97797.00
2023-05-05T02:05:27.797Z,97803.00
2023-05-05T02:07:59.206Z,97798.00
2023-05-05T02:10:28.229Z,97801.00
2023-05-05T02:12:55.948Z,97795.00
2023-05-05T02:15:25.428Z,97798.00
2023-05-05T02:17:53.288Z,97798.00
2023-05-05T02:20:22.319Z,97787.00
2023-05-05T02:22:49.890Z,97792.00
2023-05-05T02:25:20.129Z,97803.00
2023-05-05T02:27:48.746Z,97798.00
2023-05-05T02:30:20.042Z,97795.00
2023-05-05T02:33:06.239Z,97802.00
2023-05-05T02:35:39.793Z,97809.00
2023-05-05T02:38:14.772Z,97813.00
2023-05-05T02:40:45.257Z,97818.00
2023-05-05T02:43:18.606Z,97823.00
2023-05-05T02:45:45.888Z,97826.00
2023-05-05T02:48:13.190Z,97816.00
2023-05-05T02:50:40.458Z,97818.00
2023-05-05T02:53:07.919Z,97820.00
2023-05-05T02:55:45.893Z,97827.00
2023-05-05T02:58:35.121Z,97827.00
2023-05-05T03:01:28.422Z,97822.00
2023-05-05T03:04:10.309Z,97816.00
2023-05-05T03:06:41.250Z,97815.00
2023-05-05T03:09:18.214Z,97810.00
2023-05-05T03:11:51.125Z,97822.00
2023-05-05T03:14:21.466Z,97821.00
2023-05-05T03:16:49.454Z,97830.00
2023-05-05T03:19:20.052Z,97825.00
2023-05-05T03:21:48.476Z,97819.00
2023-05-05T03:24:20.703Z,97829.00
2023-05-05T03:26:49.782Z,97827.00
2023-05-05T03:29:17.217Z,97824.00
2023-05-05T03:31:44.360Z,97814.00
2023-05-05T03:34:11.503Z,97823.00
2023-05-05T03:36:39.594Z,97823.00
2023-05-05T03:39:06.674Z,97818.00
2023-05-05T03:41:33.982Z,97821.00
2023-05-05T03:44:00.997Z,97818.00
2023-05-05T03:46:28.086Z,97827.00
2023-05-05T03:48:57.254Z,97826.00
2023-05-05T03:51:25.336Z,97836.00
2023-05-05T03:53:52.400Z,97820.00
2023-05-05T03:56:19.479Z,97832.00
2023-05-05T03:58:46.580Z,97830.00
2023-05-05T04:01:13.709Z,97827.00
2023-05-05T04:03:41.065Z,97821.00
2023-05-05T04:06:08.374Z,97825.00
2023-05-05T04:08:36.226Z,97825.00
2023-05-05T04:11:03.592Z,97813.00
2023-05-05T04:13:30.680Z,97821.00
2023-05-05T04:15:59.068Z,97825.00
2023-05-05T04:18:26.456Z,97824.00
2023-05-05T04:20:53.517Z,97826.00
2023-05-05T04:23:20.564Z,97823.00
2023-05-05T04:25:48.227Z,97826.00
2023-05-05T04:28:15.350Z,97831.00
2023-05-05T04:30:42.629Z,97842.00
2023-05-05T04:33:09.666Z,97846.00
2023-05-05T04:35:36.704Z,97852.00
2023-05-05T04:38:04.027Z,97851.00
2023-05-05T04:40:31.348Z,97855.00
2023-05-05T04:42:58.478Z,97854.00
2023-05-05T04:45:25.619Z,97853.00
2023-05-05T04:47:52.750Z,97841.00
2023-05-05T04:50:20.439Z,97846.00
2023-05-05T04:52:47.529Z,97854.00
2023-05-05T04:55:14.686Z,97854.00
2023-05-05T04:57:41.745Z,97855.00
2023-05-05T05:00:09.960Z,97858.00
2023-05-05T05:02:37.909Z,97860.00
2023-05-05T05:05:05.570Z,97857.00
2023-05-05T05:07:32.658Z,97854.00
2023-05-05T05:09:59.853Z,97867.00
2023-05-05T05:12:26.894Z,97863.00
2023-05-05T05:14:54.055Z,97869.00
2023-05-05T05:17:22.554Z,97871.00
2023-05-05T05:19:49.664Z,97867.00
2023-05-05T05:22:16.836Z,97870.00
2023-05-05T05:24:43.955Z,97868.00
2023-05-05T05:27:11.517Z,97869.00
2023-05-05T05:29:38.803Z,97863.00
2023-05-05T05:32:06.142Z,97861.00
2023-05-05T05:34:33.228Z,97859.00
2023-05-05T05:37:00.304Z,97858.00
2023-05-05T05:39:27.383Z,97856.00
2023-05-05T05:41:54.432Z,97869.00
2023-05-05T05:44:21.468Z,97865.00
2023-05-05T05:46:48.532Z,97859.00
2023-05-05T05:49:16.462Z,97863.00
2023-05-05T05:51:43.510Z,97867.00
2023-05-05T05:54:10.950Z,97873.00
2023-05-05T05:56:38.126Z,97871.00
2023-05-05T05:59:08.097Z,97869.00
2023-05-05T06:01:35.625Z,97865.00
2023-05-05T06:04:02.795Z,97862.00
2023-05-05T06:06:30.214Z,97862.00
2023-05-05T06:08:57.380Z,97861.00
2023-05-05T06:11:24.492Z,97872.00
2023-05-05T06:13:51.626Z,97868.00
2023-05-05T06:16:18.724Z,97867.00
2023-05-05T06:18:45.771Z,97877.00
2023-05-05T06:21:13.484Z,97875.00
2023-05-05T06:23:40.615Z,97873.00
2023-05-05T06:26:07.759Z,97869.00
2023-05-05T06:28:34.829Z,97874.00
2023-05-05T06:31:02.071Z,97866.00
2023-05-05T06:33:29.171Z,97867.00
2023-05-05T06:35:56.255Z,97860.00
2023-05-05T06:38:23.374Z,97866.00
2023-05-05T06:40:50.670Z,97867.00
2023-05-05T06:43:18.103Z,97869.00
2023-05-05T06:45:46.082Z,97871.00
2023-05-05T06:48:13.312Z,97868.00
2023-05-05T06:50:40.363Z,97870.00
2023-05-05T06:53:07.484Z,97871.00
2023-05-05T06:55:34.555Z,97873.00
2023-05-05T06:58:01.893Z,97872.00
2023-05-05T07:00:29.255Z,97876.00
2023-05-05T07:02:56.340Z,97879.00
2023-05-05T07:05:23.444Z,97860.00
2023-05-05T07:07:55.280Z,97871.00
2023-05-05T07:10:24.051Z,97879.00
2023-05-05T07:12:52.565Z,97875.00
2023-05-05T07:15:28.861Z,97874.00
2023-05-05T07:17:57.438Z,97868.00
2023-05-05T07:20:25.245Z,97870.00
2023-05-05T07:22:52.426Z,97858.00
2023-05-05T07:25:19.716Z,97861.00
2023-05-05T07:27:46.980Z,97866.00
2023-05-05T07:30:18.123Z,97866.00
2023-05-05T07:32:46.065Z,97864.00
2023-05-05T07:35:13.623Z,97865.00
2023-05-05T07:37:40.815Z,97854.00
2023-05-05T07:40:08.933Z,97855.00
2023-05-05T07:42:36.325Z,97854.00
2023-05-05T07:45:04.493Z,97858.00
2023-05-05T07:47:31.813Z,97849.00
2023-05-05T07:49:59.117Z,97853.00
2023-05-05T07:52:43.365Z,97846.00
2023-05-05T07:55:13.434Z,97850.00
2023-05-05T07:57:40.641Z,97859.00
2023-05-05T08:00:09.651Z,97864.00
2023-05-05T08:02:36.991Z,97864.00
2023-05-05T08:05:04.666Z,97852.00
2023-05-05T08:07:31.864Z,97856.00
2023-05-05T08:09:59.023Z,97849.00
2023-05-05T08:12:26.077Z,97840.00
2023-05-05T08:14:53.124Z,97844.00
2023-05-05T08:17:20.482Z,97843.00
2023-05-05T08:19:47.557Z,97838.00
2023-05-05T08:22:14.701Z,97842.00
2023-05-05T08:24:41.767Z,97844.00
2023-05-05T08:27:08.781Z,97839.00
2023-05-05T08:29:35.950Z,97843.00
2023-05-05T08:32:03.050Z,97843.00
2023-05-05T08:34:30.129Z,97847.00
2023-05-05T08:36:57.153Z,97843.00
2023-05-05T08:39:24.215Z,97856.00
2023-05-05T08:41:51.286Z,97844.00
2023-05-05T08:44:18.309Z,97857.00
2023-05-05T08:46:46.038Z,97852.00
2023-05-05T08:49:16.530Z,97859.00
2023-05-05T08:51:45.556Z,97855.00
2023-05-05T08:54:19.588Z,97844.00
2023-05-05T08:56:50.904Z,97850.00
2023-05-05T08:59:19.194Z,97853.00
2023-05-05T09:01:47.204Z,97856.00
2023-05-05T09:04:14.487Z,97852.00
2023-05-05T09:06:41.730Z,97850.00
2023-05-05T09:09:09.517Z,97849.00
2023-05-05T09:11:37.745Z,97845.00
2023-05-05T09:14:04.812Z,97850.00
2023-05-05T09:16:31.886Z,97839.00
2023-05-05T09:19:05.916Z,97832.00
2023-05-05T09:21:34.640Z,97839.00
2023-05-05T09:24:11.279Z,97840.00
2023-05-05T09:26:46.261Z,97833.00
2023-05-05T09:29:21.578Z,97831.00
2023-05-05T09:32:08.872Z,97829.00
2023-05-05T09:34:37.210Z,97822.00
2023-05-05T09:37:04.550Z,97826.00
2023-05-05T09:39:31.926Z,97821.00
2023-05-05T09:41:59.008Z,97818.00
2023-05-05T09:44:37.949Z,97817.00
2023-05-05T09:47:07.378Z,97821.00
2023-05-05T09:49:39.483Z,97810.00
2023-05-05T09:52:15.586Z,97818.00
2023-05-05T09:54:45.718Z,97813.00
2023-05-05T09:57:30.717Z,97809.00
2023-05-05T10:00:00.253Z,97804.00
2023-05-05T10:02:46.185Z,97803.00
2023-05-05T10:05:18.306Z,97791.00
2023-05-05T10:07:47.900Z,97793.00
2023-05-05T10:10:17.405Z,97797.00
2023-05-05T10:12:47.933Z,97794.00
2023-05-05T10:15:16.686Z,97793.00
2023-05-05T10:18:05.097Z,97796.00
2023-05-05T10:20:33.574Z,97790.00
2023-05-05T10:23:06.293Z,97788.00
2023-05-05T10:25:42.929Z,97793.00
2023-05-05T10:28:17.314Z,97778.00
2023-05-05T10:30:49.484Z,97775.00
2023-05-05T10:35:55.619Z,97775.00
2023-05-05T10:38:26.821Z,97772.00
2023-05-05T10:40:55.340Z,97765.00
2023-05-05T10:43:23.606Z,97767.00
2023-05-05T10:45:51.119Z,97756.00
2023-05-05T10:48:40.739Z,97758.00
2023-05-05T10:51:35.927Z,97750.00
2023-05-05T10:54:17.013Z,97753.00
2023-05-05T10:56:44.113Z,97756.00
2023-05-05T10:59:36.223Z,97749.00
2023-05-05T11:02:23.645Z,97749.00
2023-05-05T11:05:18.267Z,97739.00
2023-05-05T11:07:50.075Z,97737.00
2023-05-05T11:10:23.774Z,97735.00
2023-05-05T11:13:02.079Z,97732.00
2023-05-05T11:15:29.348Z,97727.00
2023-05-05T11:18:06.695Z,97730.00
2023-05-05T11:20:39.791Z,97728.00
2023-05-05T11:23:07.111Z,97719.00
2023-05-05T11:25:37.825Z,97719.00
2023-05-05T11:28:17.061Z,97723.00
2023-05-05T11:30:59.879Z,97711.00
2023-05-05T11:33:39.491Z,97714.00
2023-05-05T11:36:09.193Z,97708.00
2023-05-05T11:39:10.312Z,97713.00
2023-05-05T11:42:12.950Z,97701.00
2023-05-05T11:44:40.372Z,97704.00
2023-05-05T11:47:07.464Z,97703.00
2023-05-05T11:49:39.279Z,97703.00
2023-05-05T11:52:14.903Z,97705.00
2023-05-05T11:54:49.106Z,97695.00
2023-05-05T11:57:27.213Z,97699.00
2023-05-05T12:00:08.186Z,97699.00
2023-05-05T12:02:36.280Z,97684.00
2023-05-05T12:05:04.343Z,97691.00
2023-05-05T12:07:33.570Z,97691.00
2023-05-05T12:10:01.487Z,97684.00
2023-05-05T12:12:40.310Z,97681.00
2023-05-05T12:15:09.316Z,97686.00
2023-05-05T12:17:44.937Z,97684.00
2023-05-05T12:20:13.742Z,97682.00
2023-05-05T12:22:41.589Z,97684.00
2023-05-05T12:25:09.609Z,97685.00
2023-05-05T12:27:36.735Z,97676.00
2023-05-05T12:30:16.607Z,97683.00
2023-05-05T12:32:45.786Z,97673.00
2023-05-05T12:35:13.722Z,97674.00
2023-05-05T12:37:41.632Z,97676.00
2023-05-05T12:40:51.962Z,97675.00
2023-05-05T12:43:35.321Z,97667.00
2023-05-05T12:46:13.894Z,97668.00
2023-05-05T12:48:47.960Z,97668.00
2023-05-05T12:51:20.857Z,97665.00
2023-05-05T12:53:55.869Z,97665.00
2023-05-05T12:56:44.275Z,97660.00
2023-05-05T12:59:24.107Z,97655.00
2023-05-05T13:01:57.173Z,97653.00
2023-05-05T13:04:28.832Z,97649.00
2023-05-05T13:07:14.316Z,97638.00
2023-05-05T13:09:42.100Z,97638.00
2023-05-05T13:12:12.068Z,97643.00
2023-05-05T13:14:40.745Z,97628.00
2023-05-05T13:17:08.106Z,97626.00
2023-05-05T13:19:41.647Z,97619.00
2023-05-05T13:22:13.271Z,97617.00
2023-05-05T13:24:50.859Z,97615.00
2023-05-05T13:27:20.378Z,97608.00
2023-05-05T13:29:47.578Z,97611.00
2023-05-05T13:32:14.612Z,97609.00
2023-05-05T13:34:43.625Z,97598.00
2023-05-05T13:37:10.685Z,97598.00
2023-05-05T13:39:37.844Z,97590.00
2023-05-05T13:42:05.051Z,97594.00
2023-05-05T13:44:32.196Z,97587.00
2023-05-05T13:46:59.367Z,97581.00
2023-05-05T13:49:27.252Z,97589.00
2023-05-05T13:51:55.276Z,97585.00
2023-05-05T13:54:22.454Z,97579.00
2023-05-05T13:56:49.520Z,97587.00
2023-05-05T13:59:16.580Z,97581.00
2023-05-05T14:01:43.840Z,97576.00
2023-05-05T14:04:11.070Z,97574.00
2023-05-05T14:06:38.269Z,97565.00
2023-05-05T14:09:06.406Z,97571.00
2023-05-05T14:11:33.790Z,97569.00
2023-05-05T14:14:00.865Z,97569.00
2023-05-05T14:16:27.979Z,97564.00
2023-05-05T14:18:55.143Z,97563.00
2023-05-05T14:21:22.181Z,97564.00
2023-05-05T14:23:49.207Z,97562.00
2023-05-05T14:26:16.334Z,97556.00
2023-05-05T14:28:44.510Z,97553.00
2023-05-05T14:31:12.116Z,97549.00
2023-05-05T14:33:39.295Z,97555.00
2023-05-05T14:36:06.900Z,97550.00
2023-05-05T14:38:34.068Z,97556.00
2023-05-05T14:41:01.430Z,97552.00
2023-05-05T14:43:28.556Z,97547.00
2023-05-05T14:45:55.990Z,97545.00
2023-05-05T14:48:23.002Z,97548.00
2023-05-05T14:50:50.187Z,97549.00
2023-05-05T14:53:19.118Z,97546.00
2023-05-05T14:55:46.325Z,97538.00
2023-05-05T14:58:13.366Z,97543.00
2023-05-05T15:00:40.523Z,97542.00
2023-05-05T15:03:07.770Z,97538.00
2023-05-05T15:05:35.659Z,97541.00
2023-05-05T15:08:02.663Z,97535.00
2023-05-05T15:10:29.708Z,97542.00
2023-05-05T15:12:57.012Z,97531.00
2023-05-05T15:15:24.147Z,97539.00
2023-05-05T15:17:51.523Z,97541.00
2023-05-05T15:20:18.669Z,97535.00
2023-05-05T15:22:47.376Z,97525.00
2023-05-05T15:25:15.872Z,97535.00
2023-05-05T15:27:43.038Z,97534.00
2023-05-05T15:30:11.890Z,97527.00
2023-05-05T15:32:39.268Z,97533.00
2023-05-05T15:35:07.236Z,97527.00
2023-05-05T15:37:34.768Z,97525.00
2023-05-05T15:40:01.878Z,97517.00
2023-05-05T15:42:28.965Z,97520.00
2023-05-05T15:44:56.188Z,97512.00
2023-05-05T15:47:23.265Z,97511.00
2023-05-05T15:49:50.431Z,97511.00
2023-05-05T15:52:17.960Z,97502.00
2023-05-05T15:54:45.024Z,97496.00
2023-05-05T15:57:12.112Z,97495.00
2023-05-05T15:59:39.192Z,97499.00
2023-05-05T16:02:06.977Z,97497.00
2023-05-05T16:04:34.159Z,97496.00
2023-05-05T16:07:03.294Z,97496.00
2023-05-05T16:09:30.517Z,97490.00
2023-05-05T16:11:57.649Z,97484.00
2023-05-05T16:14:24.816Z,97481.00
2023-05-05T16:16:51.910Z,97475.00
2023-05-05T16:19:19.093Z,97474.00
2023-05-05T16:21:46.291Z,97471.00
2023-05-05T16:24:16.512Z,97472.00
2023-05-05T16:26:44.026Z,97463.00
2023-05-05T16:29:11.652Z,97469.00
2023-05-05T16:31:39.487Z,97466.00
2023-05-05T16:34:07.256Z,97465.00
2023-05-05T16:36:34.532Z,97470.00
2023-05-05T16:39:01.791Z,97463.00
2023-05-05T16:41:28.957Z,97462.00
2023-05-05T16:43:56.412Z,97460.00
2023-05-05T16:46:23.571Z,97455.00
2023-05-05T16:48:50.745Z,97455.00
2023-05-05T16:51:17.857Z,97466.00
2023-05-05T16:53:45.277Z,97467.00
2023-05-05T16:56:13.279Z,97466.00
2023-05-05T16:58:41.026Z,97468.00
2023-05-05T17:01:08.090Z,97473.00
2023-05-05T17:03:35.123Z,97459.00
2023-05-05T17:06:02.414Z,97463.00
2023-05-05T17:08:29.485Z,97464.00
2023-05-05T17:10:56.539Z,97459.00
2023-05-05T17:13:23.717Z,97462.00
2023-05-05T17:15:51.445Z,97458.00
2023-05-05T17:18:21.204Z,97455.00
2023-05-05T17:20:50.043Z,97458.00
2023-05-05T17:23:17.102Z,97449.00
2023-05-05T17:25:44.212Z,97454.00
2023-05-05T17:28:11.264Z,97454.00
2023-05-05T17:30:38.300Z,97460.00
2023-05-05T17:33:05.596Z,97453.00
2023-05-05T17:35:32.790Z,97454.00
2023-05-05T17:37:59.890Z,97452.00
2023-05-05T17:40:26.956Z,97453.00
2023-05-05T17:42:53.959Z,97449.00
2023-05-05T17:45:21.015Z,97454.00
2023-05-05T17:47:48.044Z,97455.00
2023-05-05T17:50:15.072Z,97447.00
2023-05-05T17:52:43.897Z,97448.00
2023-05-05T17:55:11.434Z,97450.00
2023-05-05T17:57:38.882Z,97448.00
2023-05-05T18:00:07.092Z,97450.00
2023-05-05T18:02:37.286Z,97445.00
2023-05-05T18:05:05.234Z,97443.00
2023-05-05T18:07:33.681Z,97437.00
2023-05-05T18:10:00.959Z,97428.00
2023-05-05T18:12:28.057Z,97428.00
2023-05-05T18:14:55.046Z,97431.00
2023-05-05T18:17:22.053Z,97425.00
2023-05-05T18:19:49.328Z,97419.00
2023-05-05T18:22:16.505Z,97415.00
2023-05-05T18:24:43.649Z,97415.00
2023-05-05T18:27:10.706Z,97404.00
2023-05-05T18:29:37.975Z,97406.00
2023-05-05T18:32:06.470Z,97402.00
2023-05-05T18:34:33.762Z,97411.00
2023-05-05T18:37:00.897Z,97404.00
2023-05-05T18:39:28.191Z,97400.00
2023-05-05T18:41:55.261Z,97391.00
2023-05-05T18:44:22.342Z,97384.00
2023-05-05T18:46:49.410Z,97382.00
2023-05-05T18:49:16.580Z,97386.00
2023-05-05T18:51:44.067Z,97387.00
2023-05-05T18:54:11.246Z,97377.00
2023-05-05T18:56:38.289Z,97382.00
2023-05-05T18:59:05.374Z,97393.00
2023-05-05T19:01:32.955Z,97394.00
2023-05-05T19:04:00.166Z,97395.00
2023-05-05T19:06:27.409Z,97396.00
2023-05-05T19:08:55.574Z,97407.00
2023-05-05T19:11:23.255Z,97411.00
2023-05-05T19:13:50.276Z,97414.00
2023-05-05T19:16:18.210Z,97417.00
2023-05-05T19:18:45.272Z,97429.00
2023-05-05T19:21:12.318Z,97438.00
2023-05-05T19:23:39.439Z,97444.00
2023-05-05T19:26:07.072Z,97452.00
2023-05-05T19:28:34.163Z,97462.00
2023-05-05T19:31:01.449Z,97461.00
2023-05-05T19:33:28.429Z,97470.00
2023-05-05T19:35:55.754Z,97463.00
2023-05-05T19:38:22.872Z,97464.00
2023-05-05T19:40:50.495Z,97460.00
2023-05-05T19:43:17.533Z,97444.00
2023-05-05T19:45:44.580Z,97446.00
2023-05-05T19:48:11.697Z,97441.00
2023-05-05T19:50:38.821Z,97443.00
2023-05-05T19:53:05.963Z,97442.00
2023-05-05T19:55:33.289Z,97442.00
2023-05-05T19:58:00.403Z,97436.00
2023-05-05T20:00:27.527Z,97441.00
2023-05-05T20:02:54.620Z,97440.00
2023-05-05T20:05:21.852Z,97450.00
2023-05-05T20:07:50.711Z,97459.00
2023-05-05T20:10:18.003Z,97443.00
2023-05-05T20:12:48.160Z,97450.00
2023-05-05T20:15:18.952Z,97437.00
2023-05-05T20:17:50.113Z,97452.00
2023-05-05T20:20:22.674Z,97451.00
2023-05-05T20:22:50.060Z,97457.00
2023-05-05T20:25:17.566Z,97459.00
2023-05-05T20:27:45.875Z,97456.00
2023-05-05T20:30:13.585Z,97465.00
2023-05-05T20:32:41.462Z,97476.00
2023-05-05T20:35:09.473Z,97487.00
2023-05-05T20:37:36.534Z,97540.00
2023-05-05T20:40:03.869Z,97595.00
2023-05-05T20:42:31.075Z,97611.00
2023-05-05T20:44:59.611Z,97619.00
2023-05-05T20:47:26.979Z,97655.00
2023-05-05T20:49:54.356Z,97653.00
2023-05-05T20:52:21.414Z,97664.00
2023-05-05T20:54:48.446Z,97667.00
2023-05-05T20:57:15.467Z,97685.00
2023-05-05T20:59:42.512Z,97706.00
2023-05-05T21:02:09.664Z,97691.00
2023-05-05T21:04:36.725Z,97713.00
2023-05-05T21:07:03.792Z,97709.00
2023-05-05T21:09:31.696Z,97708.00
2023-05-05T21:11:58.893Z,97718.00
2023-05-05T21:14:26.073Z,97730.00
2023-05-05T21:16:53.181Z,97727.00
2023-05-05T21:19:20.376Z,97743.00
2023-05-05T21:21:48.051Z,97749.00
2023-05-05T21:24:15.306Z,97758.00
2023-05-05T21:26:45.579Z,97758.00
2023-05-05T21:29:12.670Z,97753.00
2023-05-05T21:31:39.776Z,97756.00
2023-05-05T21:34:06.906Z,97751.00
2023-05-05T21:36:34.166Z,97759.00
2023-05-05T21:39:01.360Z,97753.00
2023-05-05T21:41:28.672Z,97751.00
2023-05-05T21:43:55.953Z,97752.00
2023-05-05T21:46:23.105Z,97754.00
2023-05-05T21:48:50.336Z,97751.00
2023-05-05T21:51:17.592Z,97747.00
2023-05-05T21:53:44.724Z,97741.00
2023-05-05T21:56:11.837Z,97742.00
2023-05-05T21:58:39.092Z,97749.00
2023-05-05T22:01:06.232Z,97750.00
2023-05-05T22:03:35.330Z,97751.00
2023-05-05T22:06:02.714Z,97758.00
2023-05-05T22:08:29.709Z,97759.00
2023-05-05T22:10:56.754Z,97757.00
2023-05-05T22:13:23.827Z,97769.00
2023-05-05T22:15:50.962Z,97777.00
2023-05-05T22:18:18.016Z,97774.00
2023-05-05T22:20:45.130Z,97775.00
2023-05-05T22:23:14.085Z,97770.00
2023-05-05T22:25:41.264Z,97773.00
2023-05-05T22:28:08.464Z,97782.00
2023-05-05T22:30:35.737Z,97772.00
2023-05-05T22:33:02.939Z,97790.00
2023-05-05T22:35:30.164Z,97792.00
2023-05-05T22:37:57.323Z,97792.00
2023-05-05T22:40:24.388Z,97788.00
2023-05-05T22:42:51.490Z,97779.00
2023-05-05T22:45:18.604Z,97780.00
2023-05-05T22:47:45.827Z,97776.00
2023-05-05T22:50:12.925Z,97770.00
2023-05-05T22:52:39.961Z,97776.00
2023-05-05T22:55:07.956Z,97768.00
2023-05-05T22:57:36.298Z,97758.00
2023-05-05T23:00:05.352Z,97757.00
2023-05-05T23:02:32.629Z,97760.00
2023-05-05T23:04:59.685Z,97760.00
2023-05-05T23:07:26.881Z,97760.00
2023-05-05T23:09:54.045Z,97761.00
2023-05-05T23:12:21.295Z,97751.00
2023-05-05T23:14:50.085Z,97754.00
2023-05-05T23:17:17.165Z,97747.00
2023-05-05T23:19:48.172Z,97745.00
2023-05-05T23:22:15.731Z,97742.00
2023-05-05T23:24:42.851Z,97737.00
2023-05-05T23:27:09.904Z,97731.00
2023-05-05T23:29:36.925Z,97731.00
2023-05-05T23:32:04.078Z,97733.00
2023-05-05T23:34:31.112Z,97731.00
2023-05-05T23:36:58.153Z,97731.00
2023-05-05T23:39:25.319Z,97727.00
2023-05-05T23:41:52.433Z,97728.00
2023-05-05T23:44:19.488Z,97725.00
2023-05-05T23:46:46.599Z,97726.00
2023-05-05T23:49:13.634Z,97731.00
2023-05-05T23:51:40.688Z,97734.00
2023-05-05T23:54:07.825Z,97734.00
2023-05-05T23:56:34.899Z,97727.00
2023-05-05T23:59:01.947Z,97726.00
